Terminal Aerodrome Forecast
Issued by NWS

Current Version | Previous Version | Text Only | Print | Product List | Glossary Off
Versions: 1 2 3 4 5 6 7 8 9 10 11 12 13 14 15 16 17 18 19 20 21 22 23 24 25

000
FTUS41 KRLX 202010 AAA
TAFCKB
TAF AMD
KCKB 202010Z 2020/2118 25010G25KT 1SM TSRA SCT015CB BKN070
     FM202030 23008KT P6SM BKN050
     FM202200 22008KT P6SM SCT050
     FM210500 22006KT P6SM -TSRA BKN050CB
     FM211400 26007KT P6SM OVC008
     FM211600 26007KT P6SM BKN020=

USA.gov is the U.S. government's official web portal to all federal, state and local government web resources and services.